Time;durP1;ratioP1;P1;durP2;ratioP2;P2;SDS_P1;SDS_P2;PMS_P1;PMS_P2;Temp;Humidity;BMP_temperature;BMP_pressure;BME280_temperature;BME280_humidity;BME280_pressure;Samples;Min_cycle;Max_cycle;Signal;HPM_P1;HPM_P2
2021/03/15 00:02:31;;;;;;;10.00;3.70;;;;;;;1.72;70.07;100990.47;1727236;83;21307;-56
2021/03/15 00:05:06;;;;;;;7.22;3.35;;;;;;;1.68;70.21;100992.79;1727368;83;21292;-57
2021/03/15 00:07:41;;;;;;;9.35;4.42;;;;;;;1.62;70.32;100992.20;1706508;84;21288;-57
2021/03/15 00:10:15;;;;;;;8.10;2.80;;;;;;;1.54;70.46;100987.34;1705072;84;21196;-56
2021/03/15 00:12:48;;;;;;;10.82;3.25;;;;;;;1.49;70.66;100984.11;1705537;84;21303;-56
2021/03/15 00:15:23;;;;;;;7.05;3.02;;;;;;;1.45;70.77;100981.72;1703496;84;21366;-56
2021/03/15 00:17:56;;;;;;;9.03;3.20;;;;;;;1.41;70.95;100980.98;1704063;84;21264;-56
2021/03/15 00:20:30;;;;;;;9.65;3.20;;;;;;;1.35;71.06;100969.63;1703889;84;21287;-58
2021/03/15 00:23:02;;;;;;;8.87;2.23;;;;;;;1.30;71.25;100958.20;1704296;84;21807;-56
2021/03/15 00:25:35;;;;;;;10.50;3.50;;;;;;;1.24;71.43;100961.48;1703969;84;21554;-57
2021/03/15 00:28:10;;;;;;;8.93;2.83;;;;;;;1.17;71.60;100959.58;1704194;84;21269;-56
2021/03/15 00:30:43;;;;;;;7.03;2.90;;;;;;;1.12;71.76;100950.36;1704005;84;21339;-56
2021/03/15 00:33:16;;;;;;;18.63;3.00;;;;;;;1.08;71.96;100947.48;1704248;84;21268;-56
2021/03/15 00:35:50;;;;;;;;;;;;;;;1.04;72.08;100941.63;1704727;84;21196;-56
2021/03/15 00:38:22;;;;;;;13.20;3.02;;;;;;;1.02;72.25;100939.56;1703923;84;20387;-56
2021/03/15 00:40:55;;;;;;;8.57;2.93;;;;;;;0.96;72.42;100937.20;1704132;84;21169;-57
2021/03/15 00:43:28;;;;;;;9.53;2.90;;;;;;;0.92;72.56;100945.97;1704046;84;21212;-57
2021/03/15 00:46:01;;;;;;;10.57;2.73;;;;;;;0.90;72.69;100945.19;1703874;84;21590;-56
2021/03/15 00:48:34;;;;;;;9.95;2.50;;;;;;;0.87;72.81;100940.58;1704093;84;21300;-57
2021/03/15 00:51:08;;;;;;;6.47;3.15;;;;;;;0.83;72.95;100949.34;1703719;84;21303;-57
2021/03/15 00:53:41;;;;;;;8.08;2.70;;;;;;;0.79;73.06;100943.45;1703813;83;21723;-56
2021/03/15 00:56:15;;;;;;;3.98;1.52;;;;;;;0.76;73.22;100943.59;1703631;84;21390;-56
2021/03/15 00:58:48;;;;;;;12.75;2.87;;;;;;;0.75;73.35;100956.06;1704239;84;21253;-56
2021/03/15 01:01:23;;;;;;;7.65;2.85;;;;;;;0.73;73.41;100948.84;1700863;84;21205;-56
2021/03/15 01:03:58;;;;;;;7.80;3.72;;;;;;;0.72;73.48;100943.76;1702631;84;21250;-56
2021/03/15 01:06:32;;;;;;;7.40;2.40;;;;;;;0.70;73.56;100948.95;1700324;84;21304;-56
2021/03/15 01:09:07;;;;;;;10.13;2.33;;;;;;;0.67;73.63;100944.75;1701707;84;21771;-57
2021/03/15 01:11:41;;;;;;;9.85;2.58;;;;;;;0.65;73.69;100939.26;1702357;84;21205;-56
2021/03/15 01:14:16;;;;;;;7.10;2.75;;;;;;;0.62;73.76;100945.36;1683721;84;21834;-56
2021/03/15 01:16:51;;;;;;;11.55;3.10;;;;;;;0.61;73.85;100947.56;1686640;84;21870;-56
2021/03/15 01:19:27;;;;;;;9.15;2.77;;;;;;;0.60;73.96;100956.63;1704948;84;21277;-55
2021/03/15 01:22:00;;;;;;;4.53;2.05;;;;;;;0.57;74.00;100955.47;1703808;84;22010;-56
2021/03/15 01:24:33;;;;;;;8.10;2.70;;;;;;;0.54;74.09;100951.70;1727262;83;21226;-56
2021/03/15 01:27:07;;;;;;;6.12;2.42;;;;;;;0.53;74.22;100957.74;1727262;83;21284;-55
2021/03/15 01:29:40;;;;;;;9.70;2.40;;;;;;;0.50;74.28;100952.25;1704453;84;21162;-56
2021/03/15 01:32:13;;;;;;;7.80;2.63;;;;;;;0.48;74.35;100948.90;1704008;84;21314;-56
2021/03/15 01:34:47;;;;;;;11.65;2.87;;;;;;;0.47;74.40;100945.95;1727465;83;21478;-57
2021/03/15 01:37:20;;;;;;;7.57;2.60;;;;;;;0.46;74.46;100952.42;1726878;83;21185;-56
2021/03/15 01:39:53;;;;;;;11.93;2.85;;;;;;;0.45;74.52;100954.19;1704660;84;21544;-56
2021/03/15 01:42:27;;;;;;;12.63;2.58;;;;;;;0.43;74.62;100958.52;1704107;84;21169;-58
2021/03/15 01:45:01;;;;;;;11.83;2.97;;;;;;;0.42;74.65;100962.45;1727453;83;21291;-56
2021/03/15 01:47:34;;;;;;;;;;;;;;;0.38;74.70;100953.98;1729106;83;21359;-57
2021/03/15 01:50:08;;;;;;;6.53;2.58;;;;;;;0.37;74.76;100956.19;1733101;83;20285;-57
2021/03/15 01:52:41;;;;;;;11.10;2.47;;;;;;;0.36;74.95;100960.11;1726497;83;21347;-56
2021/03/15 01:55:17;;;;;;;10.55;2.85;;;;;;;0.37;74.95;100953.61;1703341;83;21823;-56
2021/03/15 01:57:50;;;;;;;7.12;2.35;;;;;;;0.35;75.02;100950.69;1703849;84;21299;-58
2021/03/15 02:00:24;;;;;;;12.80;2.70;;;;;;;0.35;75.07;100949.41;1727793;83;21229;-56
2021/03/15 02:03:00;;;;;;;11.50;2.22;;;;;;;0.32;75.13;100952.93;1726918;83;21310;-57
2021/03/15 02:05:37;;;;;;;11.45;2.55;;;;;;;0.31;75.21;100951.23;1703963;84;21716;-56
2021/03/15 02:08:10;;;;;;;7.90;2.55;;;;;;;0.30;75.27;100959.03;1703792;84;21193;-56
2021/03/15 02:10:44;;;;;;;12.78;2.95;;;;;;;0.31;75.26;100965.40;1725730;83;21185;-56
2021/03/15 02:13:37;;;;;;;11.73;2.87;;;;;;;0.28;75.26;100966.81;1726901;83;21217;-56
2021/03/15 02:16:30;;;;;;;8.75;2.98;;;;;;;0.27;75.27;100956.55;1704885;84;22156;-57
2021/03/15 02:19:38;;;;;;;12.35;3.15;;;;;;;0.24;75.36;100962.65;1726200;83;21280;-56
2021/03/15 02:22:39;;;;;;;8.75;2.62;;;;;;;0.24;75.40;100970.38;1720705;83;21252;-58
2021/03/15 02:25:46;;;;;;;12.82;3.08;;;;;;;0.22;75.44;100964.45;1706031;84;21347;-56
2021/03/15 02:28:24;;;;;;;9.95;2.80;;;;;;;0.22;75.47;100970.03;1726589;83;21275;-56
2021/03/15 02:31:42;;;;;;;10.25;2.70;;;;;;;0.18;75.44;100963.32;1727022;83;21681;-56
2021/03/15 02:34:39;;;;;;;11.97;2.47;;;;;;;0.15;75.48;100962.98;1705687;84;21288;-54
2021/03/15 02:37:16;;;;;;;6.05;2.65;;;;;;;0.15;75.58;100965.99;1725508;83;21149;-55
2021/03/15 02:39:51;;;;;;;6.20;2.60;;;;;;;0.15;75.60;100966.84;1727202;83;22089;-54
2021/03/15 02:42:25;;;;;;;12.15;2.70;;;;;;;0.15;75.56;100961.69;1706624;84;21308;-57
2021/03/15 02:44:58;;;;;;;6.40;1.98;;;;;;;0.15;75.56;100956.98;1727338;83;21158;-54
2021/03/15 02:47:31;;;;;;;8.00;2.45;;;;;;;0.13;75.54;100958.34;1727124;83;21264;-57
2021/03/15 02:50:07;;;;;;;18.90;9.70;;;;;;;0.13;75.58;100957.48;1706844;84;21866;-54
2021/03/15 02:52:46;;;;;;;10.25;4.85;;;;;;;0.11;75.55;100960.13;1726879;83;21256;-57
2021/03/15 02:55:28;;;;;;;42.90;20.23;;;;;;;0.11;75.58;100964.42;1726009;83;21343;-54
2021/03/15 02:58:01;;;;;;;27.37;11.03;;;;;;;0.09;75.56;100960.62;1706175;84;21276;-58
2021/03/15 03:00:35;;;;;;;32.95;13.18;;;;;;;0.05;75.62;100962.08;1706929;83;21312;-54
2021/03/15 03:03:07;;;;;;;;;;;;;;;0.03;75.66;100959.54;1708823;84;21280;-54
2021/03/15 03:05:41;;;;;;;116.70;41.08;;;;;;;0.02;75.75;100964.31;1706295;84;20553;-57
2021/03/15 03:08:16;;;;;;;252.90;96.00;;;;;;;-0.03;75.81;100961.05;1725536;82;21174;-57
2021/03/15 03:10:51;;;;;;;221.90;83.70;;;;;;;-0.06;75.89;100960.70;1706866;84;21261;-54
2021/03/15 03:13:27;;;;;;;31.27;12.40;;;;;;;-0.06;75.96;100958.13;1727307;83;21204;-57
2021/03/15 03:16:00;;;;;;;19.95;9.20;;;;;;;-0.06;75.99;100961.14;1706353;84;21408;-57
2021/03/15 03:18:33;;;;;;;51.02;20.50;;;;;;;-0.07;76.00;100959.02;1726034;83;21323;-57
2021/03/15 03:21:07;;;;;;;22.77;9.68;;;;;;;-0.07;76.04;100959.45;1707287;83;21260;-56
2021/03/15 03:23:41;;;;;;;55.08;20.00;;;;;;;-0.08;76.08;100961.65;1726802;83;21288;-55
2021/03/15 03:26:14;;;;;;;51.77;25.10;;;;;;;-0.09;76.10;100961.24;1706694;84;21303;-55
2021/03/15 03:28:46;;;;;;;54.63;23.27;;;;;;;-0.10;76.08;100957.00;1726970;83;21367;-55
2021/03/15 03:31:21;;;;;;;100.85;48.63;;;;;;;-0.11;76.09;100964.32;1706536;84;21272;-56
2021/03/15 03:33:54;;;;;;;37.90;16.50;;;;;;;-0.13;76.16;100966.11;1727364;83;21280;-55
2021/03/15 03:36:27;;;;;;;;;;;;;;;-0.15;76.17;100953.74;1708816;84;21261;-57
2021/03/15 03:39:00;;;;;;;47.83;19.07;;;;;;;-0.16;76.23;100944.33;1706385;84;20173;-55
2021/03/15 03:41:33;;;;;;;29.53;13.87;;;;;;;-0.17;76.30;100954.25;1727311;83;21194;-57
2021/03/15 03:44:09;;;;;;;38.30;14.98;;;;;;;-0.19;76.31;100952.98;1705362;84;21315;-56
2021/03/15 03:46:43;;;;;;;34.00;15.15;;;;;;;-0.18;76.35;100951.27;1726619;83;21272;-55
2021/03/15 03:49:16;;;;;;;25.52;10.20;;;;;;;-0.17;76.35;100947.81;1706390;84;21323;-56
2021/03/15 03:52:05;;;;;;;10.93;6.20;;;;;;;-0.09;76.37;100967.67;1727357;83;21311;-56
2021/03/15 03:54:45;;;;;;;23.00;12.80;;;;;;;0.07;76.20;100957.28;1706141;83;21785;-57
2021/03/15 03:57:24;;;;;;;11.63;3.60;;;;;;;0.26;75.87;100962.17;1726521;83;21308;-56
2021/03/15 03:59:57;;;;;;;10.30;4.97;;;;;;;0.47;75.54;100965.27;1706172;84;21200;-56
2021/03/15 04:02:30;;;;;;;12.90;2.65;;;;;;;0.54;74.99;100965.44;1726775;83;21273;-57
2021/03/15 04:05:08;;;;;;;19.67;4.28;;;;;;;0.54;74.70;100970.59;1726979;83;21185;-57
2021/03/15 04:07:44;;;;;;;8.85;3.05;;;;;;;0.54;74.56;100969.30;1705666;84;21193;-56
2021/03/15 04:10:17;;;;;;;9.88;2.92;;;;;;;0.55;74.60;100960.66;1726804;83;21220;-58
2021/03/15 04:12:56;;;;;;;6.55;2.90;;;;;;;0.66;74.50;100965.43;1727389;83;21261;-55
2021/03/15 04:15:29;;;;;;;7.75;4.08;;;;;;;0.79;74.09;100971.80;1705898;84;21284;-56
2021/03/15 04:18:04;;;;;;;10.35;5.65;;;;;;;0.92;73.72;100977.34;1726462;83;21847;-54
2021/03/15 04:20:38;;;;;;;23.57;13.22;;;;;;;0.97;73.44;100970.27;1725933;83;21319;-56
2021/03/15 04:23:15;;;;;;;19.48;6.42;;;;;;;0.95;73.22;100969.05;1706649;84;21177;-55
2021/03/15 04:25:48;;;;;;;17.00;8.60;;;;;;;0.92;73.26;100964.45;1726492;83;21320;-55
2021/03/15 04:28:21;;;;;;;24.77;5.77;;;;;;;0.89;73.33;100961.53;1726477;83;21177;-55
2021/03/15 04:30:54;;;;;;;9.08;4.75;;;;;;;0.90;73.32;100970.96;1706153;84;21300;-55
2021/03/15 04:33:28;;;;;;;17.95;6.53;;;;;;;0.91;73.39;100966.66;1727043;83;21197;-57
2021/03/15 04:36:01;;;;;;;14.75;5.08;;;;;;;0.93;73.38;100971.30;1726632;83;21288;-56
2021/03/15 04:38:34;;;;;;;5.93;3.40;;;;;;;1.00;73.25;100960.70;1705737;84;21273;-56
2021/03/15 04:41:07;;;;;;;9.10;4.30;;;;;;;1.09;73.08;100966.78;1726701;83;21317;-56
2021/03/15 04:43:41;;;;;;;13.90;4.53;;;;;;;1.39;72.86;100980.20;1727267;83;21831;-56
2021/03/15 04:46:15;;;;;;;10.58;3.35;;;;;;;1.60;72.15;100964.34;1706062;84;21291;-56
2021/03/15 04:48:48;;;;;;;13.00;4.62;;;;;;;1.67;71.71;100967.87;1676614;84;21338;-56
2021/03/15 04:51:21;;;;;;;10.37;4.67;;;;;;;1.63;71.60;100963.74;1706121;84;21276;-56
2021/03/15 04:53:55;;;;;;;17.37;4.13;;;;;;;1.58;71.49;100960.50;1727172;83;21189;-57
2021/03/15 04:56:28;;;;;;;6.80;2.80;;;;;;;1.51;71.56;100971.13;1726610;83;21196;-57
2021/03/15 04:59:01;;;;;;;10.15;3.52;;;;;;;1.44;71.65;100970.99;1705773;84;21181;-56
2021/03/15 05:01:36;;;;;;;13.48;3.60;;;;;;;1.39;71.80;100959.56;1726439;83;21165;-56
2021/03/15 05:04:13;;;;;;;11.63;4.00;;;;;;;1.33;71.78;100964.55;1727475;83;21300;-55
2021/03/15 05:06:46;;;;;;;9.98;3.52;;;;;;;1.29;71.91;100982.78;1705254;84;21224;-57
2021/03/15 05:09:20;;;;;;;14.98;4.33;;;;;;;1.24;72.07;100970.52;1726378;83;21217;-56
2021/03/15 05:11:53;;;;;;;10.37;2.87;;;;;;;1.19;72.32;100970.70;1709263;83;21306;-56
2021/03/15 05:14:26;;;;;;;7.80;4.05;;;;;;;1.26;72.54;100977.30;1712423;84;21319;-57
2021/03/15 05:16:59;;;;;;;12.77;3.40;;;;;;;1.31;72.45;100970.66;1711618;83;21263;-56
2021/03/15 05:19:33;;;;;;;;;;;;;;;1.32;72.51;100966.72;1702829;84;21201;-56
2021/03/15 05:22:05;;;;;;;8.65;3.40;;;;;;;1.35;72.38;100969.63;1679804;84;20266;-56
2021/03/15 05:24:38;;;;;;;9.18;3.30;;;;;;;1.33;72.41;100974.86;1671977;85;22099;-56
2021/03/15 05:27:12;;;;;;;8.93;3.50;;;;;;;1.34;72.52;100980.84;1679005;85;21378;-57
2021/03/15 05:29:45;;;;;;;6.90;3.27;;;;;;;1.42;72.54;100978.80;1678578;85;21331;-57
2021/03/15 05:32:19;;;;;;;7.87;3.03;;;;;;;1.54;72.33;100972.31;1670536;85;21587;-57
2021/03/15 05:34:54;;;;;;;10.20;3.30;;;;;;;1.60;72.11;100968.20;1658873;85;21224;-57
2021/03/15 05:42:11;;;;;;;6.75;3.40;;;;;;;1.71;72.07;100976.34;1677229;84;22006;-57
2021/03/15 05:44:55;;;;;;;10.48;3.30;;;;;;;1.81;72.01;100979.78;1677017;84;21304;-57
2021/03/15 05:47:58;;;;;;;9.70;4.10;;;;;;;1.83;71.78;100979.27;1675995;84;21342;-56
2021/03/15 05:54:13;;;;;;;8.95;4.00;;;;;;;1.81;71.85;100982.37;1677093;84;21571;-53
2021/03/15 06:01:17;;;;;;;9.90;3.83;;;;;;;1.80;72.18;100972.08;1661874;86;21152;-56
2021/03/15 06:08:23;;;;;;;12.20;4.35;;;;;;;1.79;72.17;100971.71;1660703;86;21257;-55
2021/03/15 06:11:16;;;;;;;22.10;7.12;;;;;;;1.92;72.42;100975.45;1660277;86;21220;-57
2021/03/15 06:13:48;;;;;;;11.15;4.67;;;;;;;2.05;72.02;100983.89;1661871;86;22165;-57
2021/03/15 06:16:22;;;;;;;12.77;3.77;;;;;;;2.11;71.81;100980.67;1661796;86;21223;-57
2021/03/15 06:19:01;;;;;;;13.28;4.78;;;;;;;2.27;71.64;100979.13;1661393;86;21232;-54
2021/03/15 06:21:36;;;;;;;32.50;9.70;;;;;;;2.37;71.05;100985.56;1661775;86;22121;-54
2021/03/15 06:24:12;;;;;;;38.53;11.88;;;;;;;2.39;70.83;100994.11;1661854;86;21189;-57
2021/03/15 06:26:47;;;;;;;28.17;8.03;;;;;;;2.41;70.85;100984.54;1683411;83;22110;-58
2021/03/15 06:29:22;;;;;;;18.85;7.25;;;;;;;2.44;70.57;101003.32;1699162;83;21324;-56
2021/03/15 06:31:56;;;;;;;21.42;7.67;;;;;;;2.46;70.44;100996.33;1705443;84;21422;-56
2021/03/15 06:34:29;;;;;;;;;;;;;;;2.47;70.38;100988.13;1707952;84;21314;-55
2021/03/15 06:37:04;;;;;;;23.25;8.10;;;;;;;2.49;70.21;100985.02;1676142;84;20308;-56
2021/03/15 06:39:42;;;;;;;8.95;3.90;;;;;;;2.46;70.06;100990.35;1703837;83;21244;-59
2021/03/15 06:42:16;;;;;;;9.40;4.10;;;;;;;2.48;70.02;100999.72;1705267;84;21339;-59
2021/03/15 06:44:50;;;;;;;14.33;5.10;;;;;;;2.57;69.84;100993.30;1705217;84;22102;-57
2021/03/15 06:47:23;;;;;;;12.58;4.87;;;;;;;2.66;69.68;100992.43;1705141;84;21322;-57
2021/03/15 06:50:00;;;;;;;16.82;5.30;;;;;;;2.75;69.38;101000.70;1705359;84;21354;-57
2021/03/15 06:52:57;;;;;;;10.28;4.70;;;;;;;2.75;69.21;100980.02;1704978;84;22191;-58
2021/03/15 06:55:43;;;;;;;10.18;4.55;;;;;;;2.72;69.09;100983.09;1705273;84;21205;-59
2021/03/15 06:58:28;;;;;;;16.12;5.10;;;;;;;2.71;69.18;100982.73;1704631;84;21208;-58
2021/03/15 07:01:22;;;;;;;17.45;6.47;;;;;;;2.72;68.91;100985.68;1704248;84;21180;-56
2021/03/15 07:04:12;;;;;;;10.68;4.28;;;;;;;2.79;68.87;100984.97;1699927;84;21311;-57
2021/03/15 07:06:45;;;;;;;8.75;4.25;;;;;;;2.98;68.60;100991.44;1705237;84;21295;-57
2021/03/15 07:09:18;;;;;;;13.83;4.83;;;;;;;3.37;68.00;100983.09;1704201;84;22035;-57
2021/03/15 07:12:04;;;;;;;17.30;6.17;;;;;;;3.80;66.98;100982.69;1705829;84;21561;-57
2021/03/15 07:14:38;;;;;;;12.88;4.87;;;;;;;3.95;66.08;100982.39;1704976;83;21259;-60
2021/03/15 07:17:13;;;;;;;12.27;3.80;;;;;;;4.18;65.71;100994.20;1705575;84;21264;-63
2021/03/15 07:19:46;;;;;;;8.75;4.20;;;;;;;4.35;64.64;101009.72;1675243;84;21223;-64
2021/03/15 07:22:24;;;;;;;10.25;4.08;;;;;;;4.19;63.79;100989.39;1705592;84;21609;-67
2021/03/15 07:25:24;;;;;;;13.65;4.15;;;;;;;3.86;64.18;101007.02;1704059;84;22181;-61
2021/03/15 07:27:57;;;;;;;10.58;4.33;;;;;;;3.74;64.53;100997.25;1718487;83;21201;-59
2021/03/15 07:30:40;;;;;;;9.48;4.53;;;;;;;3.63;64.66;100980.56;1720486;83;21232;-60
2021/03/15 07:33:25;;;;;;;6.62;3.37;;;;;;;3.61;65.28;100988.84;1721149;83;21306;-58
2021/03/15 07:35:54;;;;;;;10.23;4.37;;;;;;;3.65;65.40;100986.50;1720187;83;22035;-58
2021/03/15 07:38:34;;;;;;;16.42;6.85;;;;;;;3.73;65.75;100988.24;1720872;83;21225;-57
2021/03/15 07:41:21;;;;;;;11.73;4.40;;;;;;;3.81;65.26;100992.16;1720092;83;21193;-59
2021/03/15 07:43:54;;;;;;;13.13;4.85;;;;;;;3.96;64.89;100990.08;1720778;83;21181;-57
2021/03/15 07:46:28;;;;;;;8.73;4.78;;;;;;;3.98;64.33;101002.97;1720107;83;21506;-58
2021/03/15 07:49:03;;;;;;;9.90;4.50;;;;;;;3.88;64.49;101012.11;1720660;83;21275;-58
2021/03/15 07:51:36;;;;;;;12.25;4.42;;;;;;;3.79;64.77;100990.10;1719953;83;21216;-59
2021/03/15 07:54:12;;;;;;;10.03;4.70;;;;;;;3.72;64.78;101000.38;1707421;83;21228;-57
2021/03/15 07:56:45;;;;;;;12.95;5.87;;;;;;;3.69;65.21;100986.73;1695574;84;21296;-58
2021/03/15 07:59:19;;;;;;;19.27;6.28;;;;;;;3.79;65.54;100989.25;1696608;84;21189;-54
2021/03/15 08:01:52;;;;;;;10.90;4.80;;;;;;;4.04;65.33;100999.61;1695978;84;21303;-56
2021/03/15 08:04:25;;;;;;;8.98;4.62;;;;;;;4.20;63.96;100999.70;1696680;84;21383;-59
2021/03/15 08:06:59;;;;;;;10.63;4.42;;;;;;;4.17;63.86;100994.66;1695895;84;21367;-57
2021/03/15 08:09:32;;;;;;;9.55;4.10;;;;;;;4.10;64.05;100986.81;1696693;84;21244;-59
2021/03/15 08:12:09;;;;;;;9.15;4.05;;;;;;;4.12;63.81;100993.20;1695055;84;21326;-58
2021/03/15 08:14:47;;;;;;;10.68;4.90;;;;;;;4.03;63.67;101003.13;1696581;84;21196;-59
2021/03/15 08:17:20;;;;;;;8.65;3.90;;;;;;;3.93;63.73;101025.67;1700843;84;21377;-57
2021/03/15 08:19:54;;;;;;;13.93;5.97;;;;;;;3.73;64.13;101014.14;1696666;84;21367;-57
2021/03/15 08:22:33;;;;;;;13.65;4.83;;;;;;;3.56;64.87;100999.91;1695623;84;21322;-58
2021/03/15 08:25:08;;;;;;;8.65;4.05;;;;;;;3.50;65.43;101007.49;1696530;84;21646;-59
2021/03/15 08:27:43;;;;;;;8.65;3.92;;;;;;;3.43;65.59;100991.03;1695399;84;21327;-58
2021/03/15 08:30:25;;;;;;;12.75;4.83;;;;;;;3.25;65.70;100997.90;1696346;84;21200;-56
2021/03/15 08:32:59;;;;;;;9.60;5.55;;;;;;;3.09;66.41;101015.89;1702156;84;22047;-60
2021/03/15 08:35:32;;;;;;;12.10;6.08;;;;;;;3.00;66.63;101002.09;1703479;84;21176;-57
2021/03/15 08:38:06;;;;;;;14.68;4.05;;;;;;;3.03;67.01;100996.80;1702275;84;21228;-57
2021/03/15 08:40:47;;;;;;;5.50;3.35;;;;;;;3.14;66.96;101007.92;1703474;84;21307;-58
2021/03/15 08:43:25;;;;;;;17.15;6.22;;;;;;;3.15;66.53;100997.48;1697356;84;21468;-56
2021/03/15 08:46:01;;;;;;;14.10;6.33;;;;;;;3.08;66.77;100989.63;1678546;85;21483;-57
2021/03/15 08:48:48;;;;;;;8.78;4.70;;;;;;;3.01;67.26;100996.47;1677280;85;21239;-57
2021/03/15 08:51:38;;;;;;;10.15;5.12;;;;;;;2.94;67.54;100994.59;1678345;85;21241;-56
2021/03/15 08:54:14;;;;;;;11.83;3.87;;;;;;;2.87;67.92;100988.03;1677768;84;21549;-56
2021/03/15 08:56:47;;;;;;;11.43;5.20;;;;;;;2.88;67.51;100988.88;1658619;85;21232;-57
2021/03/15 08:59:23;;;;;;;8.88;5.00;;;;;;;2.87;67.57;100985.45;1678371;85;21240;-57
2021/03/15 09:02:00;;;;;;;8.15;3.80;;;;;;;2.90;67.50;101005.16;1655571;85;21482;-58
2021/03/15 09:04:42;;;;;;;8.45;4.00;;;;;;;3.02;67.28;100993.80;1676999;85;21464;-57
2021/03/15 09:07:46;;;;;;;9.58;3.17;;;;;;;3.11;67.26;100986.06;1677904;85;21566;-58
2021/03/15 09:10:34;;;;;;;17.27;8.00;;;;;;;3.14;66.99;100998.42;1678159;85;21330;-58
2021/03/15 09:13:15;;;;;;;10.60;4.28;;;;;;;3.16;66.91;101001.77;1677362;85;21247;-58
2021/03/15 09:16:00;;;;;;;11.63;5.25;;;;;;;3.10;66.52;101003.36;1678346;85;21201;-60
2021/03/15 09:18:48;;;;;;;;;;;;;;;3.09;66.68;100992.61;1679747;85;21255;-60
2021/03/15 09:21:33;;;;;;;9.00;3.85;;;;;;;3.19;66.71;101000.34;1676928;85;20205;-59
2021/03/15 09:24:10;;;;;;;10.10;5.42;;;;;;;3.23;66.71;100988.08;1677365;85;21506;-59
2021/03/15 09:26:48;;;;;;;18.42;8.20;;;;;;;3.33;67.01;100985.45;1675610;85;21475;-59
2021/03/15 09:29:22;;;;;;;19.73;7.42;;;;;;;3.42;66.75;100994.06;1664260;84;22035;-59
2021/03/15 09:32:13;;;;;;;19.80;9.05;;;;;;;3.60;66.58;100975.53;1664736;85;21347;-60
2021/03/15 09:34:48;;;;;;;7.30;4.58;;;;;;;3.87;66.22;100987.14;1725941;83;21208;-61
2021/03/15 09:37:21;;;;;;;10.70;5.22;;;;;;;4.02;65.29;100985.06;1727854;83;21200;-60
2021/03/15 09:40:01;;;;;;;10.08;4.58;;;;;;;4.04;64.87;100991.00;1728299;83;21177;-63
2021/03/15 09:42:39;;;;;;;8.38;3.58;;;;;;;4.32;64.85;100982.67;1727583;83;21275;-61
2021/03/15 09:45:23;;;;;;;9.90;4.03;;;;;;;4.76;63.83;100987.20;1727953;83;21188;-64
2021/03/15 09:47:56;;;;;;;11.48;4.42;;;;;;;5.00;63.11;100985.50;1727688;83;21215;-61
2021/03/15 09:50:33;;;;;;;11.75;5.22;;;;;;;5.15;62.66;100993.77;1728136;83;21200;-63
2021/03/15 09:53:14;;;;;;;;;;;;;;;5.29;62.38;100967.42;1728694;81;21474;-60
2021/03/15 09:56:10;;;;;;;6.95;3.17;;;;;;;5.61;61.55;100991.60;1726087;82;20242;-61
2021/03/15 09:58:54;;;;;;;7.65;3.10;;;;;;;5.70;60.78;100974.19;1727256;83;21493;-63
2021/03/15 10:01:28;;;;;;;6.67;3.33;;;;;;;5.71;60.18;100969.83;1728083;83;21197;-60
2021/03/15 10:04:07;;;;;;;6.95;3.17;;;;;;;5.58;59.85;100976.18;1726110;82;21227;-62
2021/03/15 10:06:58;;;;;;;7.45;3.42;;;;;;;5.48;60.35;100976.77;1727985;83;21450;-61
2021/03/15 10:09:48;;;;;;;7.05;2.72;;;;;;;5.71;60.83;100975.84;1710474;83;21360;-66
2021/03/15 10:12:27;;;;;;;9.45;4.58;;;;;;;5.76;59.71;100953.48;1680327;85;21375;-64
2021/03/15 10:15:03;;;;;;;7.22;3.00;;;;;;;5.57;60.32;100952.88;1680719;85;21331;-63
2021/03/15 10:17:39;;;;;;;5.58;3.05;;;;;;;5.56;60.59;100947.32;1672025;83;21554;-63
2021/03/15 10:20:29;;;;;;;19.12;7.78;;;;;;;5.60;60.81;100945.75;1700411;84;21513;-64
2021/03/15 10:23:18;;;;;;;25.88;7.90;;;;;;;5.57;61.34;100947.22;1673380;85;21922;-64
2021/03/15 10:26:02;;;;;;;20.92;8.03;;;;;;;5.55;60.97;100939.14;1669058;84;21318;-63
2021/03/15 10:28:37;;;;;;;23.32;9.98;;;;;;;5.39;60.96;100933.55;1700409;83;21506;-62
2021/03/15 10:31:14;;;;;;;18.17;8.23;;;;;;;5.29;61.61;100947.11;1711469;82;22027;-63
2021/03/15 10:33:50;;;;;;;14.15;6.08;;;;;;;5.20;61.68;100934.66;1686564;83;22124;-63
2021/03/15 10:36:27;;;;;;;18.67;7.75;;;;;;;5.20;62.21;100936.80;1700092;84;22180;-62
2021/03/15 10:39:03;;;;;;;14.35;6.40;;;;;;;5.13;61.65;100928.13;1685014;83;21256;-62
2021/03/15 10:41:41;;;;;;;14.28;5.53;;;;;;;5.06;62.30;100931.98;1687312;82;21200;-61
2021/03/15 10:44:24;;;;;;;7.60;3.47;;;;;;;5.10;62.62;100921.35;1669017;85;21200;-61
2021/03/15 10:46:59;;;;;;;9.60;3.30;;;;;;;5.16;62.52;100929.27;1688439;84;21169;-66
2021/03/15 10:49:35;;;;;;;10.30;4.15;;;;;;;5.31;62.57;100912.36;1689040;84;21500;-64
2021/03/15 10:52:34;;;;;;;8.70;3.42;;;;;;;5.45;62.24;100920.65;1688560;85;21315;-65
2021/03/15 10:55:11;;;;;;;;;;;;;;;5.56;61.88;100908.36;1691700;83;21303;-60
2021/03/15 11:02:03;;;;;;;6.37;2.65;;;;;;;5.70;61.67;100918.33;1701614;84;21456;-63
2021/03/15 11:04:41;;;;;;;8.40;3.50;;;;;;;5.71;61.48;100888.81;1698566;84;22084;-64
2021/03/15 11:07:24;;;;;;;5.87;2.80;;;;;;;5.70;61.52;100893.66;1699473;84;21274;-64
2021/03/15 11:10:24;;;;;;;11.10;3.47;;;;;;;5.64;61.41;100891.85;1701085;84;21379;-63
2021/03/15 11:13:01;;;;;;;9.23;3.75;;;;;;;5.53;61.80;100909.38;1699516;84;21327;-66
2021/03/15 11:15:39;;;;;;;10.55;2.95;;;;;;;5.46;62.03;100906.76;1699862;84;21257;-67
2021/03/15 11:18:25;;;;;;;6.67;2.77;;;;;;;5.36;61.95;100888.27;1699416;84;21321;-65
2021/03/15 11:21:01;;;;;;;8.18;3.58;;;;;;;5.28;62.69;100884.42;1700285;84;21332;-62
2021/03/15 11:23:40;;;;;;;5.42;2.60;;;;;;;5.21;62.80;100878.75;1689912;84;21559;-56
2021/03/15 11:26:20;;;;;;;10.25;3.08;;;;;;;5.18;63.10;100890.59;1700870;84;21254;-61
2021/03/15 11:28:57;;;;;;;9.08;3.65;;;;;;;5.21;63.06;100874.02;1701489;84;21178;-60
2021/03/15 11:31:31;;;;;;;9.25;3.08;;;;;;;5.28;63.09;100884.42;1701332;84;21312;-59
2021/03/15 11:34:06;;;;;;;9.43;3.10;;;;;;;5.35;63.59;100886.58;1701049;84;21324;-61
2021/03/15 11:36:47;;;;;;;8.78;3.08;;;;;;;5.53;63.76;100898.14;1687553;84;21334;-62
2021/03/15 11:39:35;;;;;;;11.15;4.00;;;;;;;5.68;63.23;100889.02;1680501;85;21937;-61
2021/03/15 11:42:31;;;;;;;6.55;3.25;;;;;;;5.83;63.25;100882.89;1662869;85;21252;-61
2021/03/15 11:45:11;;;;;;;7.80;3.12;;;;;;;5.88;62.51;100921.17;1679085;85;21517;-63
2021/03/15 11:47:47;;;;;;;11.05;4.22;;;;;;;5.85;62.23;100881.56;1679774;85;21334;-60
2021/03/15 11:50:26;;;;;;;9.13;3.62;;;;;;;5.87;62.47;100879.70;1668863;85;21328;-62
2021/03/15 11:53:02;;;;;;;11.90;3.55;;;;;;;5.90;62.38;100884.69;1679712;85;21181;-61
2021/03/15 11:55:37;;;;;;;9.08;3.87;;;;;;;5.86;62.18;100884.52;1678768;85;21311;-60
2021/03/15 11:58:12;;;;;;;7.83;3.30;;;;;;;5.84;62.07;100893.70;1679810;85;22070;-62
2021/03/15 12:00:46;;;;;;;7.37;3.72;;;;;;;5.79;62.16;100881.88;1659302;85;21318;-60
2021/03/15 12:03:20;;;;;;;8.60;3.58;;;;;;;5.76;62.12;100882.05;1677973;85;21578;-60
2021/03/15 12:06:03;;;;;;;11.03;2.95;;;;;;;5.70;62.13;100878.06;1678594;85;21330;-59
2021/03/15 12:08:38;;;;;;;11.33;3.30;;;;;;;5.63;62.39;100875.45;1677091;85;21401;-60
2021/03/15 12:11:14;;;;;;;7.90;2.72;;;;;;;5.52;62.47;100870.03;1678926;85;21873;-61
2021/03/15 12:13:48;;;;;;;7.20;2.90;;;;;;;5.40;62.91;100872.04;1679695;85;21388;-61
2021/03/15 12:16:22;;;;;;;6.62;3.20;;;;;;;5.31;63.08;100883.80;1679011;85;21376;-59
2021/03/15 12:18:56;;;;;;;7.55;2.98;;;;;;;5.24;63.79;100881.63;1679737;85;21252;-59
2021/03/15 12:21:32;;;;;;;7.50;2.50;;;;;;;5.22;63.93;100862.72;1678762;85;21228;-60
2021/03/15 12:24:08;;;;;;;9.63;3.42;;;;;;;5.24;64.15;100868.66;1677444;85;21521;-60
2021/03/15 12:26:42;;;;;;;12.35;5.50;;;;;;;5.28;64.51;100870.14;1678292;85;21339;-60
2021/03/15 12:29:18;;;;;;;23.75;7.33;;;;;;;5.29;64.42;100866.18;1679489;85;21216;-59
2021/03/15 12:31:55;;;;;;;12.90;5.00;;;;;;;5.30;64.58;100852.74;1678758;85;21586;-59
2021/03/15 12:34:31;;;;;;;16.70;5.80;;;;;;;5.33;64.54;100867.67;1679587;85;22038;-61
2021/03/15 12:37:07;;;;;;;12.82;4.97;;;;;;;5.37;64.48;100865.74;1691745;82;21177;-59
2021/03/15 12:39:43;;;;;;;17.23;5.08;;;;;;;5.38;64.65;100855.26;1723225;83;21216;-64